Time;durP1;ratioP1;P1;durP2;ratioP2;P2;SDS_P1;SDS_P2;PMS_P1;PMS_P2;Temp;Humidity;BMP_temperature;BMP_pressure;BME280_temperature;BME280_humidity;BME280_pressure;Samples;Min_cycle;Max_cycle;Signal;HPM_P1;HPM_P2
2022/04/26 03:37:47;;;;;;;16.13;6.25;;;;;;;;;;5056401;28;20659;-90
2022/04/26 03:40:13;;;;;;;15.27;7.50;;;;;;;;;;5031483;28;20028;-89
2022/04/26 03:42:40;;;;;;;14.63;7.63;;;;;;;;;;5034629;28;20029;-90
2022/04/26 03:45:06;;;;;;;19.55;7.43;;;;;;;;;;5047052;28;20124;-90
2022/04/26 03:47:51;;;;;;;16.80;7.90;;;;;;;;;;5057689;28;20040;-88
2022/04/26 03:50:17;;;;;;;16.92;8.15;;;;;;;;;;5041219;28;20601;-88
2022/04/26 03:52:44;;;;;;;17.52;8.60;;;;;;;;;;5030125;28;20072;-88
2022/04/26 03:55:11;;;;;;;15.77;8.43;;;;;;;;;;5037573;28;20039;-89
2022/04/26 03:57:41;;;;;;;18.92;8.82;;;;;;;;;;5031913;28;20480;-88
2022/04/26 04:00:08;;;;;;;18.10;8.60;;;;;;;;;;5033937;28;20392;-87
2022/04/26 04:02:35;;;;;;;16.67;8.63;;;;;;;;;;5036611;28;20033;-88
2022/04/26 04:05:01;;;;;;;18.15;9.55;;;;;;;;;;5036533;28;20404;-89
2022/04/26 04:07:27;;;;;;;13.93;8.30;;;;;;;;;;5036699;28;20056;-88
2022/04/26 04:09:55;;;;;;;11.85;7.30;;;;;;;;;;5048154;28;20488;-88
2022/04/26 04:12:27;;;;;;;11.90;7.97;;;;;;;;;;5024279;28;20048;-88
2022/04/26 04:14:54;;;;;;;18.63;6.68;;;;;;;;;;5036926;28;20041;-87
2022/04/26 04:17:24;;;;;;;20.35;6.43;;;;;;;;;;5036144;28;20476;-88
2022/04/26 04:19:51;;;;;;;10.15;5.70;;;;;;;;;;5054162;28;20037;-89
2022/04/26 04:22:17;;;;;;;9.55;4.90;;;;;;;;;;5032148;28;20037;-88
2022/04/26 04:24:48;;;;;;;13.32;5.32;;;;;;;;;;5016996;28;20165;-87
2022/04/26 04:27:15;;;;;;;9.80;4.72;;;;;;;;;;5016865;28;20095;-89
2022/04/26 04:29:41;;;;;;;10.80;5.20;;;;;;;;;;5012181;28;20065;-88
2022/04/26 04:32:07;;;;;;;15.13;5.85;;;;;;;;;;5007867;28;20037;-88
2022/04/26 04:34:37;;;;;;;15.50;8.13;;;;;;;;;;5016363;28;20034;-88
2022/04/26 04:37:03;;;;;;;13.30;5.07;;;;;;;;;;5033061;28;20033;-87
2022/04/26 04:39:30;;;;;;;14.70;4.60;;;;;;;;;;5016163;28;20029;-88
2022/04/26 04:41:59;;;;;;;15.45;6.15;;;;;;;;;;5016874;28;20104;-85
2022/04/26 04:44:28;;;;;;;11.27;4.35;;;;;;;;;;5016095;28;20741;-87
2022/04/26 04:47:00;;;;;;;13.60;5.15;;;;;;;;;;5016000;28;20424;-86
2022/04/26 04:49:27;;;;;;;13.70;5.85;;;;;;;;;;5009301;28;20037;-87
2022/04/26 04:51:53;;;;;;;14.65;7.05;;;;;;;;;;5018400;28;20128;-87
2022/04/26 04:54:19;;;;;;;19.95;6.90;;;;;;;;;;5016000;28;20068;-87
2022/04/26 04:56:46;;;;;;;18.25;7.43;;;;;;;;;;5005018;28;20030;-88
2022/04/26 04:59:12;;;;;;;13.20;5.00;;;;;;;;;;5020358;28;20037;-86
2022/04/26 05:01:38;;;;;;;12.25;5.82;;;;;;;;;;5026973;28;20161;-85
2022/04/26 05:04:07;;;;;;;14.25;6.35;;;;;;;;;;5032051;28;20120;-85
2022/04/26 05:06:33;;;;;;;13.68;6.28;;;;;;;;;;5013777;28;20052;-86
2022/04/26 05:08:59;;;;;;;13.13;6.05;;;;;;;;;;5028305;28;20526;-86
2022/04/26 05:11:26;;;;;;;11.02;6.15;;;;;;;;;;5014327;28;20551;-86
2022/04/26 05:14:01;;;;;;;16.80;6.78;;;;;;;;;;5011979;28;20037;-85
2022/04/26 05:16:27;;;;;;;12.90;7.00;;;;;;;;;;5014298;28;20076;-86
2022/04/26 05:18:55;;;;;;;19.65;6.57;;;;;;;;;;5016261;28;20026;-87
2022/04/26 05:21:21;;;;;;;12.85;6.85;;;;;;;;;;5015997;28;20479;-86
2022/04/26 05:26:35;;;;;;;12.35;6.72;;;;;;;;;;5047982;28;20581;-86
2022/04/26 05:29:01;;;;;;;11.85;6.38;;;;;;;;;;5033440;28;20352;-85
2022/04/26 05:31:27;;;;;;;14.65;6.68;;;;;;;;;;5025297;28;20033;-85
2022/04/26 05:33:54;;;;;;;18.80;6.97;;;;;;;;;;5031493;28;20040;-86
2022/04/26 05:36:21;;;;;;;13.10;6.70;;;;;;;;;;5032858;28;20080;-86
2022/04/26 05:38:47;;;;;;;12.73;7.13;;;;;;;;;;5031819;28;20053;-86
2022/04/26 05:41:14;;;;;;;12.68;6.07;;;;;;;;;;5030623;28;20043;-85
2022/04/26 05:43:41;;;;;;;12.70;5.93;;;;;;;;;;5033456;28;20119;-86
2022/04/26 05:46:11;;;;;;;10.35;5.78;;;;;;;;;;5030358;28;20400;-85
2022/04/26 05:48:40;;;;;;;13.77;6.45;;;;;;;;;;5029618;28;20029;-85
2022/04/26 05:51:06;;;;;;;11.43;6.50;;;;;;;;;;4700569;28;10000135;-86
2022/04/26 05:53:39;;;;;;;10.75;6.10;;;;;;;;;;5027855;28;20045;-86
2022/04/26 05:56:06;;;;;;;15.13;6.43;;;;;;;;;;5048209;28;20048;-86
2022/04/26 05:58:33;;;;;;;14.85;6.57;;;;;;;;;;5049647;28;20041;-87
2022/04/26 06:00:59;;;;;;;10.35;5.93;;;;;;;;;;5034854;28;20045;-86
2022/04/26 06:03:33;;;;;;;16.63;6.75;;;;;;;;;;5046793;28;20029;-87
2022/04/26 06:06:00;;;;;;;15.60;6.97;;;;;;;;;;5035334;28;20033;-88
2022/04/26 06:08:27;;;;;;;14.95;6.55;;;;;;;;;;5031202;28;20452;-87
2022/04/26 06:10:53;;;;;;;12.60;6.15;;;;;;;;;;5033438;28;20084;-87
2022/04/26 06:13:21;;;;;;;13.85;7.25;;;;;;;;;;5034226;28;20071;-86
2022/04/26 06:15:48;;;;;;;20.38;7.00;;;;;;;;;;5034768;28;20064;-86
2022/04/26 06:18:16;;;;;;;15.68;8.57;;;;;;;;;;5033400;28;20559;-86
2022/04/26 06:20:42;;;;;;;16.80;8.65;;;;;;;;;;5032127;28;20033;-87
2022/04/26 06:23:09;;;;;;;13.55;7.72;;;;;;;;;;5026918;28;20044;-87
2022/04/26 06:25:39;;;;;;;14.85;8.00;;;;;;;;;;5015847;28;20037;-87
2022/04/26 06:28:06;;;;;;;15.48;7.90;;;;;;;;;;5013297;28;20026;-86
2022/04/26 06:30:32;;;;;;;12.23;7.03;;;;;;;;;;5030105;28;20365;-87
2022/04/26 06:33:35;;;;;;;14.65;7.72;;;;;;;;;;5015305;28;20043;-87
2022/04/26 06:36:01;;;;;;;14.13;6.47;;;;;;;;;;4936858;29;20027;-87
2022/04/26 06:38:28;;;;;;;9.82;5.53;;;;;;;;;;4996672;28;20389;-85
2022/04/26 06:40:54;;;;;;;11.43;5.90;;;;;;;;;;5012549;28;20032;-85
2022/04/26 06:43:21;;;;;;;8.95;4.82;;;;;;;;;;5021171;28;20041;-88
2022/04/26 06:45:47;;;;;;;8.65;4.30;;;;;;;;;;5009916;28;20434;-87
2022/04/26 06:48:21;;;;;;;11.80;5.03;;;;;;;;;;5007916;28;20137;-85
2022/04/26 06:50:48;;;;;;;13.50;5.03;;;;;;;;;;5021036;28;20033;-87
2022/04/26 06:53:16;;;;;;;11.40;5.10;;;;;;;;;;5012010;28;20037;-86
2022/04/26 06:55:42;;;;;;;14.98;5.55;;;;;;;;;;5010686;28;20048;-86
2022/04/26 06:58:11;;;;;;;10.30;4.68;;;;;;;;;;5007206;28;20516;-86
2022/04/26 07:00:40;;;;;;;8.38;4.07;;;;;;;;;;5011261;28;20052;-87
2022/04/26 07:03:07;;;;;;;7.82;4.25;;;;;;;;;;5016660;28;20064;-85
2022/04/26 07:05:34;;;;;;;9.95;4.47;;;;;;;;;;5014801;28;20124;-86
2022/04/26 07:08:01;;;;;;;17.73;3.78;;;;;;;;;;5014662;28;20030;-86
2022/04/26 07:10:29;;;;;;;11.75;3.83;;;;;;;;;;5011920;28;20033;-85
2022/04/26 07:12:58;;;;;;;11.05;3.08;;;;;;;;;;5014289;28;20087;-86
2022/04/26 07:15:25;;;;;;;9.88;2.45;;;;;;;;;;5019570;28;20026;-87
2022/04/26 07:17:53;;;;;;;9.95;3.28;;;;;;;;;;5032562;28;20029;-86
2022/04/26 07:20:19;;;;;;;10.98;3.10;;;;;;;;;;5014050;28;20041;-87
2022/04/26 07:22:45;;;;;;;7.72;2.53;;;;;;;;;;5016274;28;20459;-87
2022/04/26 07:25:12;;;;;;;7.35;1.33;;;;;;;;;;5033064;28;20025;-86
2022/04/26 07:27:38;;;;;;;10.02;1.70;;;;;;;;;;5026241;28;20037;-87
2022/04/26 07:30:05;;;;;;;5.60;1.40;;;;;;;;;;5055581;28;20029;-87
2022/04/26 07:35:18;;;;;;;5.30;1.40;;;;;;;;;;5053645;28;20396;-86
2022/04/26 07:37:45;;;;;;;10.32;2.10;;;;;;;;;;5037518;28;20033;-87
2022/04/26 07:40:39;;;;;;;9.32;2.35;;;;;;;;;;5043223;28;20029;-85
2022/04/26 07:43:06;;;;;;;12.10;3.00;;;;;;;;;;5050842;28;20029;-86
2022/04/26 07:45:32;;;;;;;10.93;3.67;;;;;;;;;;5052503;28;20056;-86
2022/04/26 07:48:29;;;;;;;8.43;2.80;;;;;;;;;;5053370;28;20137;-87
2022/04/26 07:50:55;;;;;;;8.88;2.88;;;;;;;;;;5051836;28;20037;-86
2022/04/26 07:53:28;;;;;;;9.05;2.22;;;;;;;;;;5052836;28;20411;-86
2022/04/26 07:55:54;;;;;;;9.77;2.47;;;;;;;;;;5030425;28;21105;-86
2022/04/26 07:58:20;;;;;;;8.85;1.73;;;;;;;;;;5055557;28;20017;-86
2022/04/26 08:00:49;;;;;;;8.10;2.28;;;;;;;;;;5036053;28;20029;-87
2022/04/26 08:03:16;;;;;;;7.88;3.13;;;;;;;;;;5054772;28;20539;-87
2022/04/26 08:05:43;;;;;;;14.05;3.13;;;;;;;;;;5044194;28;20037;-86
2022/04/26 08:08:26;;;;;;;12.40;4.05;;;;;;;;;;5037162;28;20037;-86
2022/04/26 08:10:53;;;;;;;13.20;4.53;;;;;;;;;;5033204;28;20037;-86
2022/04/26 08:13:19;;;;;;;15.55;3.67;;;;;;;;;;5043593;28;20048;-86
2022/04/26 08:15:46;;;;;;;13.55;2.95;;;;;;;;;;5038663;28;20116;-87
2022/04/26 08:18:13;;;;;;;17.30;4.03;;;;;;;;;;5038355;28;20179;-87
2022/04/26 08:20:39;;;;;;;12.00;3.75;;;;;;;;;;5024547;28;20038;-86
2022/04/26 08:23:10;;;;;;;19.83;4.28;;;;;;;;;;5054659;28;20041;-87
2022/04/26 08:28:28;;;;;;;17.90;6.07;;;;;;;;;;5050667;28;20064;-86
2022/04/26 08:30:57;;;;;;;20.67;5.32;;;;;;;;;;5032224;28;20135;-86
2022/04/26 08:33:23;;;;;;;20.10;5.70;;;;;;;;;;5036645;28;20069;-86
2022/04/26 08:35:51;;;;;;;17.58;5.38;;;;;;;;;;5034872;28;20033;-86
2022/04/26 08:38:17;;;;;;;19.13;5.40;;;;;;;;;;5036670;28;20024;-86
2022/04/26 08:40:45;;;;;;;17.33;5.40;;;;;;;;;;5058070;28;20820;-86
2022/04/26 08:43:11;;;;;;;20.15;5.15;;;;;;;;;;5037590;28;20033;-86
2022/04/26 08:45:38;;;;;;;17.98;5.10;;;;;;;;;;5037735;28;20037;-86
2022/04/26 08:51:04;;;;;;;11.80;4.22;;;;;;;;;;5051898;28;20091;-87
2022/04/26 08:53:32;;;;;;;9.63;2.95;;;;;;;;;;5041583;28;20032;-87
2022/04/26 08:56:06;;;;;;;11.18;3.38;;;;;;;;;;5040701;28;20142;-86
2022/04/26 08:58:33;;;;;;;12.30;3.55;;;;;;;;;;5029821;28;20511;-86
2022/04/26 09:01:19;;;;;;;9.52;4.25;;;;;;;;;;5035051;28;20136;-87
2022/04/26 09:04:10;;;;;;;11.85;5.70;;;;;;;;;;5049998;28;20087;-87
2022/04/26 09:06:36;;;;;;;20.08;4.82;;;;;;;;;;5040110;28;20112;-87
2022/04/26 09:09:24;;;;;;;9.10;4.15;;;;;;;;;;5030429;28;20033;-86
2022/04/26 09:11:52;;;;;;;15.90;7.07;;;;;;;;;;5033197;28;20068;-86
2022/04/26 09:14:34;;;;;;;19.48;8.52;;;;;;;;;;5053759;28;20600;-87
2022/04/26 09:17:07;;;;;;;16.50;7.00;;;;;;;;;;5035121;28;20033;-87
2022/04/26 09:19:44;;;;;;;12.38;6.40;;;;;;;;;;5035265;28;20064;-87
2022/04/26 09:22:18;;;;;;;19.77;7.80;;;;;;;;;;5029938;28;20120;-87
2022/04/26 09:25:05;;;;;;;14.63;7.13;;;;;;;;;;5035629;28;20056;-88
2022/04/26 09:27:37;;;;;;;14.65;6.88;;;;;;;;;;5036336;28;20404;-87
2022/04/26 09:30:16;;;;;;;21.38;6.53;;;;;;;;;;5041601;28;20423;-87
2022/04/26 09:32:46;;;;;;;18.00;5.57;;;;;;;;;;5034770;28;20102;-87
2022/04/26 09:35:22;;;;;;;11.43;5.65;;;;;;;;;;5035417;28;20087;-87
2022/04/26 09:37:48;;;;;;;15.35;6.03;;;;;;;;;;5054649;28;20100;-88
2022/04/26 09:40:23;;;;;;;19.80;6.68;;;;;;;;;;5053966;28;20370;-90
2022/04/26 09:42:50;;;;;;;18.75;6.72;;;;;;;;;;5038824;28;20526;-88
2022/04/26 09:45:23;;;;;;;22.58;6.60;;;;;;;;;;5039555;28;20471;-88
2022/04/26 09:47:53;;;;;;;14.82;6.43;;;;;;;;;;5048034;28;20550;-89
2022/04/26 09:50:20;;;;;;;11.20;4.55;;;;;;;;;;5033941;28;20047;-87
2022/04/26 09:52:46;;;;;;;11.15;5.05;;;;;;;;;;5031610;28;20466;-88
2022/04/26 09:55:20;;;;;;;11.20;4.93;;;;;;;;;;5027492;28;20033;-88
2022/04/26 09:57:47;;;;;;;13.75;4.53;;;;;;;;;;5042868;28;20037;-89
2022/04/26 10:00:16;;;;;;;13.70;5.00;;;;;;;;;;5032967;28;20375;-89
2022/04/26 10:02:55;;;;;;;13.75;4.32;;;;;;;;;;5031865;28;20037;-88
2022/04/26 10:05:23;;;;;;;4.32;1.90;;;;;;;;;;5033732;28;20037;-88
2022/04/26 10:07:51;;;;;;;4.68;1.63;;;;;;;;;;5027495;28;20355;-89
2022/04/26 10:10:21;;;;;;;5.68;2.63;;;;;;;;;;5049704;28;20439;-90
2022/04/26 10:13:31;;;;;;;6.35;1.50;;;;;;;;;;5033763;28;20715;-90
2022/04/26 10:15:41;;;;;;;9.57;2.17;;;;;;;;;;5055650;28;20430;-89
2022/04/26 10:18:26;;;;;;;6.70;1.20;;;;;;;;;;5041065;28;20479;-88
2022/04/26 10:20:53;;;;;;;5.78;1.50;;;;;;;;;;5034316;28;20496;-88
2022/04/26 10:23:21;;;;;;;6.07;1.40;;;;;;;;;;5028358;28;20056;-88
2022/04/26 10:26:06;;;;;;;7.07;1.55;;;;;;;;;;5013456;28;20044;-88
2022/04/26 10:28:36;;;;;;;4.03;1.25;;;;;;;;;;5033255;28;20032;-89
2022/04/26 10:31:11;;;;;;;4.72;1.25;;;;;;;;;;5014613;28;20026;-89
2022/04/26 10:33:41;;;;;;;9.70;2.13;;;;;;;;;;5013116;28;20056;-88
2022/04/26 10:36:36;;;;;;;3.30;1.25;;;;;;;;;;5013940;28;20033;-88
2022/04/26 10:39:07;;;;;;;5.30;1.00;;;;;;;;;;4997380;28;20041;-89
2022/04/26 10:41:37;;;;;;;4.90;1.25;;;;;;;;;;5012430;28;20384;-89
2022/04/26 10:44:16;;;;;;;10.73;1.27;;;;;;;;;;5010205;28;20093;-88
2022/04/26 10:46:43;;;;;;;5.68;1.00;;;;;;;;;;5026122;28;20494;-88
2022/04/26 10:49:23;;;;;;;6.72;1.63;;;;;;;;;;5009346;28;20473;-89
2022/04/26 10:51:53;;;;;;;5.95;1.00;;;;;;;;;;5010147;28;20037;-89
2022/04/26 10:54:38;;;;;;;4.65;1.23;;;;;;;;;;5014136;28;20049;-89
2022/04/26 10:57:06;;;;;;;7.40;1.33;;;;;;;;;;5020568;28;20069;-89
2022/04/26 10:59:33;;;;;;;4.50;1.10;;;;;;;;;;5013263;28;20049;-88
2022/04/26 11:02:00;;;;;;;4.03;1.05;;;;;;;;;;5026623;28;20029;-89
2022/04/26 11:04:26;;;;;;;5.93;0.90;;;;;;;;;;5016777;28;20037;-89
2022/04/26 11:06:52;;;;;;;3.92;0.90;;;;;;;;;;5016261;28;20091;-90
2022/04/26 11:09:19;;;;;;;6.70;1.13;;;;;;;;;;5017863;28;20045;-90
2022/04/26 11:11:52;;;;;;;7.28;1.00;;;;;;;;;;5017933;28;20088;-88
2022/04/26 11:14:20;;;;;;;7.32;1.55;;;;;;;;;;5018022;28;20042;-88
2022/04/26 11:17:06;;;;;;;6.10;0.98;;;;;;;;;;5035057;28;20179;-88
2022/04/26 11:19:33;;;;;;;4.95;1.15;;;;;;;;;;5019640;28;20052;-88
2022/04/26 11:22:19;;;;;;;8.77;1.38;;;;;;;;;;5017813;28;20033;-89
2022/04/26 11:30:26;;;;;;;10.27;1.20;;;;;;;;;;5051914;28;20035;-89
2022/04/26 11:32:55;;;;;;;9.60;1.90;;;;;;;;;;5037728;28;20037;-87
2022/04/26 11:35:31;;;;;;;6.82;1.30;;;;;;;;;;5036297;28;20076;-88
2022/04/26 11:37:59;;;;;;;6.68;1.83;;;;;;;;;;4688888;28;10000298;-88
2022/04/26 11:40:29;;;;;;;11.80;1.73;;;;;;;;;;5033217;28;20483;-86
2022/04/26 11:42:57;;;;;;;10.82;1.25;;;;;;;;;;5034226;28;20125;-88
2022/04/26 11:45:29;;;;;;;8.40;1.15;;;;;;;;;;5030632;28;20033;-88
2022/04/26 11:47:58;;;;;;;12.80;1.40;;;;;;;;;;5037282;28;20033;-88
2022/04/26 11:50:27;;;;;;;5.55;1.08;;;;;;;;;;5036927;28;20040;-88
2022/04/26 11:52:55;;;;;;;7.13;1.55;;;;;;;;;;5035335;28;20036;-88
2022/04/26 11:55:40;;;;;;;7.43;1.75;;;;;;;;;;5046135;28;20045;-87
2022/04/26 11:58:09;;;;;;;8.60;1.17;;;;;;;;;;5033486;28;20040;-87
2022/04/26 12:00:59;;;;;;;7.40;1.38;;;;;;;;;;5034209;28;20029;-88
2022/04/26 12:03:30;;;;;;;5.75;1.20;;;;;;;;;;5046894;28;20032;-90
2022/04/26 12:06:02;;;;;;;6.72;1.17;;;;;;;;;;5034936;28;20488;-90
2022/04/26 12:08:29;;;;;;;3.42;1.02;;;;;;;;;;5036212;28;20524;-90
2022/04/26 12:11:15;;;;;;;7.35;1.00;;;;;;;;;;5039854;28;20059;-89
2022/04/26 12:13:42;;;;;;;4.15;1.50;;;;;;;;;;5033690;28;20037;-89
2022/04/26 12:16:19;;;;;;;5.05;1.60;;;;;;;;;;5038683;28;20071;-90
2022/04/26 12:18:52;;;;;;;5.05;1.50;;;;;;;;;;5047964;28;20531;-89
2022/04/26 12:21:21;;;;;;;4.47;1.67;;;;;;;;;;5028473;28;20044;-90
2022/04/26 12:23:48;;;;;;;3.10;1.50;;;;;;;;;;5018729;28;20128;-90
2022/04/26 12:26:15;;;;;;;8.68;2.42;;;;;;;;;;5006694;28;20767;-90
2022/04/26 12:28:51;;;;;;;7.88;2.65;;;;;;;;;;5006810;28;20057;-89
2022/04/26 12:31:21;;;;;;;4.07;1.83;;;;;;;;;;5017289;28;20176;-89
2022/04/26 12:34:12;;;;;;;7.35;2.22;;;;;;;;;;5010912;28;20056;-90
2022/04/26 12:37:13;;;;;;;5.80;1.92;;;;;;;;;;5018095;28;20037;-89
2022/04/26 12:39:45;;;;;;;7.00;2.03;;;;;;;;;;5010690;28;20381;-89
2022/04/26 12:42:13;;;;;;;13.40;2.72;;;;;;;;;;4659247;28;9999767;-89
2022/04/26 12:44:53;;;;;;;17.27;3.60;;;;;;;;;;5016456;28;20034;-90
2022/04/26 12:52:51;;;;;;;9.45;2.53;;;;;;;;;;5022831;28;20121;-90
2022/04/26 12:55:34;;;;;;;8.48;2.67;;;;;;;;;;5010603;28;20041;-89
2022/04/26 12:58:01;;;;;;;9.10;3.10;;;;;;;;;;5001485;28;20057;-88
2022/04/26 13:00:28;;;;;;;12.98;3.40;;;;;;;;;;5011817;28;20087;-89
2022/04/26 13:03:03;;;;;;;11.63;2.80;;;;;;;;;;5018193;28;20034;-89
2022/04/26 13:05:41;;;;;;;10.10;3.50;;;;;;;;;;5007491;28;20033;-89
2022/04/26 13:08:07;;;;;;;10.25;3.88;;;;;;;;;;5027415;28;20134;-89
2022/04/26 13:10:34;;;;;;;17.48;5.60;;;;;;;;;;5027673;28;20041;-89
2022/04/26 13:13:00;;;;;;;16.13;5.82;;;;;;;;;;5009245;28;20714;-88
2022/04/26 13:15:27;;;;;;;17.90;6.65;;;;;;;;;;5015180;28;20037;-89
2022/04/26 13:17:53;;;;;;;16.92;7.80;;;;;;;;;;5007192;28;20040;-89
2022/04/26 13:20:20;;;;;;;18.40;9.18;;;;;;;;;;5007270;28;20445;-89
2022/04/26 13:22:46;;;;;;;22.90;9.55;;;;;;;;;;5011476;28;20049;-89
2022/04/26 13:25:13;;;;;;;27.60;11.55;;;;;;;;;;5006855;28;20485;-88
2022/04/26 13:27:39;;;;;;;29.30;11.27;;;;;;;;;;5006546;28;20563;-87
2022/04/26 13:30:06;;;;;;;19.58;9.70;;;;;;;;;;5002822;28;20041;-88
2022/04/26 13:32:33;;;;;;;22.85;9.93;;;;;;;;;;5021630;28;20045;-88
2022/04/26 13:35:00;;;;;;;25.23;10.35;;;;;;;;;;5020717;28;20040;-88
2022/04/26 13:37:27;;;;;;;21.70;10.55;;;;;;;;;;5026120;28;20491;-88
2022/04/26 13:39:54;;;;;;;26.13;11.02;;;;;;;;;;5006991;28;20041;-88
2022/04/26 13:42:24;;;;;;;24.17;10.98;;;;;;;;;;5007160;28;20049;-88
2022/04/26 13:44:52;;;;;;;29.30;12.32;;;;;;;;;;5005020;28;20069;-88
2022/04/26 13:47:19;;;;;;;27.35;11.32;;;;;;;;;;5001818;28;20548;-88
2022/04/26 13:49:46;;;;;;;27.52;11.40;;;;;;;;;;5021110;28;20125;-89
2022/04/26 13:52:15;;;;;;;27.90;11.07;;;;;;;;;;5011361;28;20046;-88
2022/04/26 13:54:42;;;;;;;26.67;10.73;;;;;;;;;;5015261;28;20042;-88
2022/04/26 13:57:09;;;;;;;24.70;10.55;;;;;;;;;;5023008;28;20030;-88
2022/04/26 13:59:36;;;;;;;26.15;11.05;;;;;;;;;;5004076;28;20030;-89
2022/04/26 14:02:03;;;;;;;26.45;10.80;;;;;;;;;;5015379;28;20029;-88
2022/04/26 14:04:30;;;;;;;23.90;11.27;;;;;;;;;;5033928;28;20051;-88
2022/04/26 14:06:56;;;;;;;23.92;10.60;;;;;;;;;;5017779;28;20125;-88
2022/04/26 14:09:26;;;;;;;29.92;11.38;;;;;;;;;;5011227;28;20044;-88
2022/04/26 14:11:55;;;;;;;31.60;13.73;;;;;;;;;;5033361;28;20075;-88
2022/04/26 14:22:45;;;;;;;41.78;18.15;;;;;;;;;;5044573;28;20040;-88
2022/04/26 14:25:13;;;;;;;40.25;17.10;;;;;;;;;;5048093;28;20090;-88
2022/04/26 14:27:55;;;;;;;33.05;14.15;;;;;;;;;;5045379;28;20095;-88
2022/04/26 14:30:22;;;;;;;26.33;13.07;;;;;;;;;;5027158;28;20028;-88
2022/04/26 14:32:54;;;;;;;25.20;13.05;;;;;;;;;;4697610;28;10000327;-88
2022/04/26 14:35:20;;;;;;;31.23;12.93;;;;;;;;;;5031354;28;20496;-88
2022/04/26 14:37:48;;;;;;;28.88;13.20;;;;;;;;;;5035995;28;20357;-88
2022/04/26 14:40:16;;;;;;;22.33;12.18;;;;;;;;;;5035927;28;20092;-88
2022/04/26 14:42:46;;;;;;;30.52;12.05;;;;;;;;;;5060596;28;20089;-89
2022/04/26 14:45:12;;;;;;;22.27;11.27;;;;;;;;;;5060759;28;20365;-88
2022/04/26 14:47:50;;;;;;;27.27;12.00;;;;;;;;;;5043373;28;20422;-88
2022/04/26 14:50:18;;;;;;;21.85;11.70;;;;;;;;;;5034916;28;20120;-89
2022/04/26 14:52:44;;;;;;;25.23;12.60;;;;;;;;;;5032479;28;20033;-89
2022/04/26 14:55:18;;;;;;;28.88;11.32;;;;;;;;;;5036269;28;20038;-89
2022/04/26 14:57:45;;;;;;;25.90;10.07;;;;;;;;;;5053447;28;20033;-88
2022/04/26 15:00:11;;;;;;;22.08;10.30;;;;;;;;;;5040014;28;20044;-88
2022/04/26 15:02:40;;;;;;;17.55;9.27;;;;;;;;;;5051471;28;20033;-88
2022/04/26 15:05:23;;;;;;;20.35;9.35;;;;;;;;;;5042491;28;20029;-88
2022/04/26 15:10:37;;;;;;;23.77;9.30;;;;;;;;;;5056040;28;20056;-88
2022/04/26 15:18:40;;;;;;;23.15;10.20;;;;;;;;;;5057691;28;20044;-88
2022/04/26 15:21:09;;;;;;;20.30;9.55;;;;;;;;;;5039089;28;20156;-88
2022/04/26 15:23:36;;;;;;;20.15;8.85;;;;;;;;;;5025018;28;20493;-88
2022/04/26 15:26:16;;;;;;;21.95;9.23;;;;;;;;;;5033259;28;20033;-88
2022/04/26 15:28:42;;;;;;;17.73;8.85;;;;;;;;;;5034093;28;20488;-88
2022/04/26 15:31:16;;;;;;;20.10;9.23;;;;;;;;;;5019427;28;20037;-88
2022/04/26 15:33:43;;;;;;;19.02;10.00;;;;;;;;;;5038540;28;20377;-88
2022/04/26 15:36:11;;;;;;;18.33;10.13;;;;;;;;;;5019620;28;20029;-88
2022/04/26 15:38:40;;;;;;;21.05;10.95;;;;;;;;;;5018642;28;20041;-88
2022/04/26 15:41:07;;;;;;;20.70;9.73;;;;;;;;;;5016974;28;20034;-88
2022/04/26 15:43:36;;;;;;;22.33;10.73;;;;;;;;;;5013703;28;20120;-88
2022/04/26 15:46:21;;;;;;;21.77;9.77;;;;;;;;;;5034275;28;20057;-88
2022/04/26 15:48:48;;;;;;;24.00;10.45;;;;;;;;;;5026512;28;20040;-88
2022/04/26 15:51:18;;;;;;;30.10;12.27;;;;;;;;;;5007942;28;20041;-88
2022/04/26 15:53:46;;;;;;;22.23;11.52;;;;;;;;;;5012844;28;20472;-88
2022/04/26 15:56:16;;;;;;;21.77;10.82;;;;;;;;;;5017717;28;20079;-88
2022/04/26 15:58:42;;;;;;;20.10;10.88;;;;;;;;;;5017655;28;20125;-89
2022/04/26 16:01:12;;;;;;;22.15;10.93;;;;;;;;;;5031305;28;20048;-89
2022/04/26 16:03:43;;;;;;;17.25;9.77;;;;;;;;;;5014969;28;20045;-88
2022/04/26 16:06:13;;;;;;;18.80;9.73;;;;;;;;;;5030165;28;20041;-88
2022/04/26 16:08:40;;;;;;;20.08;9.23;;;;;;;;;;5030895;28;20040;-88
2022/04/26 16:22:12;;;;;;;16.83;8.18;;;;;;;;;;5039063;28;20393;-88
2022/04/26 16:24:41;;;;;;;17.23;8.45;;;;;;;;;;5030184;28;20385;-88
2022/04/26 16:27:08;;;;;;;19.42;9.30;;;;;;;;;;5035356;28;20052;-88
2022/04/26 16:29:34;;;;;;;17.52;9.55;;;;;;;;;;5047898;28;20396;-89
2022/04/26 16:32:01;;;;;;;18.05;9.32;;;;;;;;;;5037672;28;20041;-88
2022/04/26 16:34:30;;;;;;;14.32;7.97;;;;;;;;;;5036400;28;20040;-88
2022/04/26 16:36:58;;;;;;;21.60;8.00;;;;;;;;;;5033391;28;20136;-88
2022/04/26 16:39:24;;;;;;;17.20;7.82;;;;;;;;;;5029426;28;20029;-88
2022/04/26 16:42:15;;;;;;;16.48;7.35;;;;;;;;;;5043482;28;20041;-88
2022/04/26 16:44:42;;;;;;;14.35;7.88;;;;;;;;;;4966191;28;20065;-88
2022/04/26 16:47:10;;;;;;;14.95;7.38;;;;;;;;;;5032301;28;20542;-88
2022/04/26 16:49:36;;;;;;;16.98;8.43;;;;;;;;;;5035059;28;20034;-88
2022/04/26 16:52:10;;;;;;;19.00;7.70;;;;;;;;;;5034792;28;20377;-88
2022/04/26 16:54:36;;;;;;;15.73;7.55;;;;;;;;;;5051037;28;20044;-88
2022/04/26 16:57:03;;;;;;;19.17;8.18;;;;;;;;;;5051241;28;20028;-89
2022/04/26 16:59:30;;;;;;;17.40;7.88;;;;;;;;;;5036578;28;20025;-87
2022/04/26 17:01:57;;;;;;;17.25;8.40;;;;;;;;;;5034474;28;20031;-88
2022/04/26 17:04:24;;;;;;;14.07;8.07;;;;;;;;;;5053885;28;20391;-88
2022/04/26 17:06:50;;;;;;;18.65;8.45;;;;;;;;;;5032796;28;20041;-88
2022/04/26 17:09:20;;;;;;;18.15;8.27;;;;;;;;;;5054865;28;20033;-88
2022/04/26 17:11:47;;;;;;;16.00;8.48;;;;;;;;;;5035571;28;20497;-88
2022/04/26 17:14:15;;;;;;;22.95;9.55;;;;;;;;;;5032862;28;20449;-88
2022/04/26 17:16:47;;;;;;;23.15;9.38;;;;;;;;;;5035229;28;20041;-88
2022/04/26 17:19:16;;;;;;;18.95;9.57;;;;;;;;;;5029812;28;20025;-88
2022/04/26 17:21:46;;;;;;;24.05;11.23;;;;;;;;;;5026666;28;20029;-89
2022/04/26 17:27:07;;;;;;;22.25;10.75;;;;;;;;;;5028713;28;20049;-87
2022/04/26 17:29:34;;;;;;;19.08;10.02;;;;;;;;;;5006124;28;20033;-88
2022/04/26 17:32:01;;;;;;;21.88;10.65;;;;;;;;;;5011234;28;20040;-88
2022/04/26 17:34:28;;;;;;;20.48;11.20;;;;;;;;;;5005933;28;20057;-88
2022/04/26 17:36:54;;;;;;;19.80;10.77;;;;;;;;;;4648365;28;9999869;-88
2022/04/26 17:39:24;;;;;;;22.55;10.13;;;;;;;;;;5017098;28;20478;-88
2022/04/26 17:41:55;;;;;;;18.50;10.07;;;;;;;;;;5013237;28;20116;-89
2022/04/26 17:44:22;;;;;;;25.95;9.85;;;;;;;;;;5032019;28;20875;-88
2022/04/26 17:46:49;;;;;;;17.45;9.25;;;;;;;;;;5007715;28;20029;-87
2022/04/26 17:49:15;;;;;;;20.15;9.60;;;;;;;;;;5005203;28;20116;-88
2022/04/26 17:51:42;;;;;;;16.30;8.35;;;;;;;;;;5014651;28;20042;-87
2022/04/26 17:56:57;;;;;;;19.70;8.93;;;;;;;;;;5025004;28;20068;-88
2022/04/26 17:59:24;;;;;;;15.23;8.52;;;;;;;;;;5015762;28;20237;-88
2022/04/26 18:01:50;;;;;;;17.00;8.85;;;;;;;;;;5019344;28;20044;-88
2022/04/26 18:04:18;;;;;;;17.70;8.00;;;;;;;;;;5016007;28;20030;-88
2022/04/26 18:06:46;;;;;;;18.00;8.60;;;;;;;;;;5015562;28;20044;-88
2022/04/26 18:09:22;;;;;;;19.10;8.40;;;;;;;;;;5009888;28;20040;-88
2022/04/26 18:11:49;;;;;;;14.07;7.45;;;;;;;;;;5014253;28;20452;-88
2022/04/26 18:14:15;;;;;;;21.92;8.70;;;;;;;;;;5013583;28;20073;-87
2022/04/26 18:16:48;;;;;;;17.13;8.63;;;;;;;;;;5011679;28;20060;-87
2022/04/26 18:19:14;;;;;;;19.20;10.65;;;;;;;;;;5012187;28;20037;-88
2022/04/26 18:21:41;;;;;;;27.27;14.32;;;;;;;;;;5015202;28;20029;-88
2022/04/26 18:24:07;;;;;;;28.10;17.58;;;;;;;;;;5015770;28;20049;-88
2022/04/26 18:26:35;;;;;;;32.70;12.90;;;;;;;;;;5011839;28;20125;-89
2022/04/26 18:29:03;;;;;;;22.10;8.23;;;;;;;;;;5015284;28;20124;-88
2022/04/26 18:31:41;;;;;;;18.92;8.45;;;;;;;;;;5010925;28;20041;-88
2022/04/26 18:34:08;;;;;;;16.55;8.93;;;;;;;;;;5029186;28;20072;-88
2022/04/26 18:36:37;;;;;;;15.45;8.00;;;;;;;;;;5036757;28;20030;-88
2022/04/26 18:39:08;;;;;;;17.38;7.75;;;;;;;;;;5027855;28;20026;-88
2022/04/26 18:41:35;;;;;;;16.38;7.63;;;;;;;;;;5009616;28;20042;-88
2022/04/26 18:44:02;;;;;;;18.10;8.40;;;;;;;;;;5009561;28;20037;-88
2022/04/26 18:46:29;;;;;;;19.95;9.00;;;;;;;;;;5003173;28;20124;-88
2022/04/26 18:48:56;;;;;;;19.17;9.38;;;;;;;;;;5013286;28;20165;-87
2022/04/26 18:51:22;;;;;;;22.75;9.80;;;;;;;;;;5014726;28;20652;-88
2022/04/26 18:53:51;;;;;;;21.27;9.65;;;;;;;;;;5014119;28;20038;-88
2022/04/26 18:56:17;;;;;;;18.23;9.38;;;;;;;;;;5018515;28;20025;-88
2022/04/26 18:58:44;;;;;;;19.17;10.45;;;;;;;;;;5016398;28;20157;-88
2022/04/26 19:01:11;;;;;;;19.88;9.85;;;;;;;;;;5020063;28;20025;-88
2022/04/26 19:03:37;;;;;;;17.27;9.77;;;;;;;;;;5028494;28;20433;-88
2022/04/26 19:06:05;;;;;;;17.20;9.27;;;;;;;;;;5017399;28;20043;-88
2022/04/26 19:08:32;;;;;;;18.52;8.18;;;;;;;;;;5013826;28;20040;-88
2022/04/26 19:13:43;;;;;;;18.17;7.78;;;;;;;;;;5038233;28;20077;-88
2022/04/26 19:16:10;;;;;;;18.73;7.60;;;;;;;;;;5013073;28;20100;-87
2022/04/26 19:18:38;;;;;;;23.52;7.85;;;;;;;;;;5009412;28;20420;-87
2022/04/26 19:21:05;;;;;;;16.13;7.30;;;;;;;;;;5011813;28;20032;-88